Terminal Aerodrome Forecast
Issued by NWS

Home | Current Version | Previous Version | Text Only | Print | Product List | Glossary On
Versions: 1 2 3 4 5 6 7 8 9 10 11 12 13 14 15 16
000
FTUS45 KABQ 231700
TAFSAF
TAF
KSAF 231720Z 2318/2418 25018G28KT P6SM FEW100
     FM232300 26021G31KT P6SM SCT100
     FM240100 31014G24KT P6SM FEW100
     FM240300 33011KT P6SM SKC
     FM241100 36009KT P6SM SKC=

USA.gov is the U.S. government's official web portal to all federal, state and local government web resources and services.